PAEN/ENA METAR and TAF weather

Enter ICAO airport designator
Station Type Date Time Source
PAEN METAR 2020/11/27 14:53 UTC NOAA

PAEN 271453Z AUTO 36008KT 1 1/4SM -SN BR FEW006 OVC018 M01/M02 A2941 RMK AO2 SLP962 P0000 60000 T10111022 58016 TSNO


Station Type Date Time Source
PAEN Decoded METAR 2020/11/27 14:53 UTC NOAA

KENAI MUNICIPAL AIRPORT, AK, United States (PAEN) 60-35N 151-14W 25M
Nov 27, 2020 - 09:53 AM EST / 2020.11.27 1453 UTC
Wind: from the N (360 degrees) at 9 MPH (8 KT):0
Visibility: 1 1/4 mile(s):0
Sky conditions: overcast
Weather: light snow; mist
Precipitation last hour: A trace
Temperature: 30.0 F (-1.1 C)
Windchill: 21 F (-6 C):1
Dew Point: 28.0 F (-2.2 C)
Relative Humidity: 92%
Pressure (altimeter): 29.41 in. Hg (995 hPa)
Pressure tendency: 0.05 inches (1.6 hPa) lower than three hours ago
ob: PAEN 271453Z AUTO 36008KT 1 1/4SM -SN BR FEW006 OVC018 M01/M02 A2941 RMK AO2 SLP962 P0000 60000 T10111022 58016 TSNO
cycle: 15

Station Type Date Time Source
PAEN TAF 2020/11/27 12:39 UTC NOAA

TAF PAEN 271136Z 2712/2812 18008KT 5SM -SN SCT007 OVC015
TEMPO 2712/2715 1SM -SN OVC007
FM280000 03008KT P6SM OVC040

Example: see airport list